createdAt,value
2022-08-16T00:01:24.422Z,6.25
2022-08-16T00:03:53.780Z,7.13
2022-08-16T00:06:22.451Z,7.07
2022-08-16T00:08:49.849Z,7.45
2022-08-16T00:11:16.996Z,7.05
2022-08-16T00:13:53.744Z,7.57
2022-08-16T00:17:05.987Z,7.13
2022-08-16T00:19:13.963Z,8.13
2022-08-16T00:21:43.606Z,7.30
2022-08-16T00:24:12.193Z,7.18
2022-08-16T00:26:43.900Z,6.90
2022-08-16T00:29:15.717Z,7.07
2022-08-16T00:31:58.621Z,7.45
2022-08-16T00:34:43.869Z,6.97
2022-08-16T00:37:17.298Z,8.20
2022-08-16T00:39:47.486Z,8.27
2022-08-16T00:42:29.786Z,8.00
2022-08-16T00:45:25.069Z,8.60
2022-08-16T00:47:53.510Z,8.98
2022-08-16T00:50:36.628Z,8.25
2022-08-16T00:53:07.618Z,8.65
2022-08-16T00:55:39.024Z,8.82
2022-08-16T00:58:12.866Z,9.23
2022-08-16T01:00:41.510Z,9.02
2022-08-16T01:03:12.815Z,9.45
2022-08-16T01:05:41.592Z,9.82
2022-08-16T01:08:36.205Z,9.27
2022-08-16T01:11:00.038Z,9.88
2022-08-16T01:13:32.501Z,10.27
2022-08-16T01:16:13.999Z,10.20
2022-08-16T01:18:52.330Z,9.27
2022-08-16T01:21:44.109Z,9.63
2022-08-16T01:24:52.890Z,9.07
2022-08-16T01:27:25.967Z,10.27
2022-08-16T01:30:03.481Z,9.57
2022-08-16T01:32:36.100Z,9.15
2022-08-16T01:35:08.853Z,9.88
2022-08-16T01:37:52.993Z,9.60
2022-08-16T01:40:27.923Z,9.32
2022-08-16T01:42:56.279Z,9.98
2022-08-16T01:45:24.203Z,9.20
2022-08-16T01:48:20.357Z,8.93
2022-08-16T01:51:08.520Z,8.88
2022-08-16T01:53:40.684Z,9.38
2022-08-16T01:56:24.332Z,10.05
2022-08-16T01:58:55.299Z,9.18
2022-08-16T02:01:25.829Z,9.70
2022-08-16T02:03:53.431Z,10.00
2022-08-16T02:06:34.176Z,9.63
2022-08-16T02:09:05.272Z,9.23
2022-08-16T02:11:47.713Z,9.75
2022-08-16T02:14:18.257Z,8.85
2022-08-16T02:16:45.687Z,10.52
2022-08-16T02:19:16.028Z,9.38
2022-08-16T02:22:09.354Z,10.23
2022-08-16T02:24:40.907Z,9.35
2022-08-16T02:27:09.961Z,9.30
2022-08-16T02:29:38.244Z,9.80
2022-08-16T02:32:50.235Z,9.98
2022-08-16T02:34:58.714Z,10.13
2022-08-16T02:37:51.575Z,10.52
2022-08-16T02:40:16.805Z,9.95
2022-08-16T02:42:45.395Z,9.57
2022-08-16T02:45:17.395Z,8.90
2022-08-16T02:48:00.729Z,9.73
2022-08-16T02:50:55.260Z,8.13
2022-08-16T02:53:23.610Z,9.63
2022-08-16T02:55:52.474Z,9.05
2022-08-16T02:58:24.752Z,9.20
2022-08-16T03:00:56.011Z,8.35
2022-08-16T03:03:26.171Z,8.63
2022-08-16T03:05:53.760Z,9.70
2022-08-16T03:08:49.945Z,9.70
2022-08-16T03:11:16.555Z,10.43
2022-08-16T03:13:48.040Z,9.32
2022-08-16T03:16:38.491Z,9.60
2022-08-16T03:19:09.616Z,9.10
2022-08-16T03:21:38.630Z,9.90
2022-08-16T03:24:28.196Z,9.32
2022-08-16T03:27:02.870Z,9.60
2022-08-16T03:29:32.554Z,9.43
2022-08-16T03:32:03.488Z,10.10
2022-08-16T03:34:33.455Z,10.90
2022-08-16T03:37:01.044Z,10.65
2022-08-16T03:39:28.931Z,10.05
2022-08-16T03:41:59.254Z,9.80
2022-08-16T03:44:43.349Z,10.65
2022-08-16T03:47:19.289Z,10.00
2022-08-16T03:49:51.370Z,9.77
2022-08-16T03:52:23.427Z,9.77
2022-08-16T03:54:58.089Z,10.17
2022-08-16T03:57:31.850Z,9.57
2022-08-16T04:00:35.423Z,8.90
2022-08-16T04:03:07.705Z,9.95
2022-08-16T04:05:46.709Z,9.82
2022-08-16T04:08:22.381Z,10.32
2022-08-16T04:10:55.288Z,9.30
2022-08-16T04:13:58.988Z,8.00
2022-08-16T04:16:26.368Z,9.23
2022-08-16T04:19:02.309Z,10.68
2022-08-16T04:21:46.154Z,10.05
2022-08-16T04:24:16.783Z,10.10
2022-08-16T04:26:46.508Z,10.35
2022-08-16T04:29:23.679Z,10.38
2022-08-16T04:31:56.644Z,9.95
2022-08-16T04:34:34.245Z,9.38
2022-08-16T04:37:02.271Z,10.35
2022-08-16T04:39:36.978Z,10.00
2022-08-16T04:42:17.617Z,10.57
2022-08-16T04:44:53.572Z,10.98
2022-08-16T04:47:32.958Z,10.50
2022-08-16T04:50:10.292Z,10.25
2022-08-16T04:52:38.605Z,11.13
2022-08-16T04:55:16.062Z,11.20
2022-08-16T04:57:46.312Z,10.80
2022-08-16T05:00:31.881Z,11.60
2022-08-16T05:03:21.660Z,10.88
2022-08-16T05:05:59.395Z,12.35
2022-08-16T05:08:34.182Z,12.65
2022-08-16T05:11:18.531Z,11.55
2022-08-16T05:13:49.416Z,12.02
2022-08-16T05:16:27.847Z,11.40
2022-08-16T05:19:06.236Z,11.35
2022-08-16T05:21:41.188Z,13.32
2022-08-16T05:24:11.016Z,12.25
2022-08-16T05:26:40.824Z,12.20
2022-08-16T05:29:15.183Z,12.63
2022-08-16T05:31:53.026Z,12.70
2022-08-16T05:34:22.332Z,12.63
2022-08-16T05:36:55.296Z,13.32
2022-08-16T05:39:24.710Z,47.13
2022-08-16T05:41:53.948Z,20.80
2022-08-16T05:44:25.200Z,13.85
2022-08-16T05:47:00.331Z,12.00
2022-08-16T05:49:39.702Z,12.50
2022-08-16T05:52:10.636Z,12.40
2022-08-16T05:54:44.402Z,11.77
2022-08-16T05:57:17.011Z,12.15
2022-08-16T05:59:45.554Z,11.85
2022-08-16T06:02:15.741Z,13.18
2022-08-16T06:04:45.783Z,11.20
2022-08-16T06:07:24.657Z,11.85
2022-08-16T06:10:00.108Z,11.43
2022-08-16T06:12:30.931Z,11.07
2022-08-16T06:15:07.715Z,12.85
2022-08-16T06:17:43.268Z,11.57
2022-08-16T06:20:34.676Z,11.20
2022-08-16T06:23:16.908Z,10.80
2022-08-16T06:26:00.942Z,10.52
2022-08-16T06:28:36.667Z,10.82
2022-08-16T06:31:11.995Z,10.40
2022-08-16T06:33:44.857Z,11.05
2022-08-16T06:36:14.731Z,10.68
2022-08-16T06:38:56.054Z,9.48
2022-08-16T06:41:43.957Z,10.85
2022-08-16T06:44:24.627Z,11.23
2022-08-16T06:46:57.900Z,10.52
2022-08-16T06:49:30.045Z,11.40
2022-08-16T06:52:02.756Z,11.05
2022-08-16T06:54:36.411Z,10.02
2022-08-16T06:57:05.491Z,11.02
2022-08-16T06:59:52.425Z,11.18
2022-08-16T07:02:33.179Z,11.02
2022-08-16T07:05:02.149Z,10.65
2022-08-16T07:07:33.839Z,10.25
2022-08-16T07:10:08.405Z,10.75
2022-08-16T07:12:47.504Z,10.18
2022-08-16T07:15:25.711Z,11.10
2022-08-16T07:17:53.466Z,10.07
2022-08-16T07:20:35.131Z,10.02
2022-08-16T07:23:04.026Z,9.90
2022-08-16T07:25:48.080Z,10.23
2022-08-16T07:28:20.842Z,9.70
2022-08-16T07:30:53.192Z,10.55
2022-08-16T07:33:52.071Z,10.30
2022-08-16T07:36:22.744Z,9.70
2022-08-16T07:38:52.427Z,10.73
2022-08-16T07:41:20.911Z,9.60
2022-08-16T07:43:53.852Z,9.50
2022-08-16T07:46:38.609Z,9.13
2022-08-16T07:49:22.561Z,8.48
2022-08-16T07:51:54.290Z,9.00
2022-08-16T07:54:37.914Z,8.05
2022-08-16T07:57:12.248Z,8.68
2022-08-16T07:59:45.591Z,8.35
2022-08-16T08:02:14.376Z,8.38
2022-08-16T08:04:49.564Z,8.48
2022-08-16T08:07:17.397Z,9.15
2022-08-16T08:09:45.831Z,8.35
2022-08-16T08:12:31.394Z,7.93
2022-08-16T08:15:00.658Z,8.55
2022-08-16T08:17:43.183Z,8.13
2022-08-16T08:20:23.883Z,8.07
2022-08-16T08:23:00.856Z,7.90
2022-08-16T08:25:55.155Z,7.05
2022-08-16T08:28:26.691Z,7.88
2022-08-16T08:31:03.037Z,7.68
2022-08-16T08:33:35.497Z,7.20
2022-08-16T08:36:07.328Z,6.28
2022-08-16T08:38:46.039Z,6.57
2022-08-16T08:41:18.673Z,7.65
2022-08-16T08:43:51.814Z,7.97
2022-08-16T08:46:21.518Z,7.68
2022-08-16T08:48:59.644Z,8.20
2022-08-16T08:51:36.999Z,8.63
2022-08-16T08:54:09.417Z,8.10
2022-08-16T08:56:45.486Z,7.88
2022-08-16T08:59:24.944Z,8.98
2022-08-16T09:01:56.543Z,9.85
2022-08-16T09:04:32.961Z,10.30
2022-08-16T09:07:04.168Z,9.10
2022-08-16T09:09:34.195Z,9.25
2022-08-16T09:12:09.373Z,8.82
2022-08-16T09:15:02.495Z,8.27
2022-08-16T09:17:49.047Z,8.52
2022-08-16T09:20:19.984Z,8.32
2022-08-16T09:22:52.579Z,8.30
2022-08-16T09:25:34.179Z,9.07
2022-08-16T09:28:10.447Z,7.72
2022-08-16T09:30:57.851Z,7.60
2022-08-16T09:33:25.406Z,7.75
2022-08-16T09:35:53.501Z,8.70
2022-08-16T09:38:32.412Z,7.70
2022-08-16T09:41:01.948Z,7.72
2022-08-16T09:43:59.503Z,7.50
2022-08-16T09:46:45.814Z,7.22
2022-08-16T09:49:04.597Z,6.50
2022-08-16T09:51:37.202Z,7.07
2022-08-16T09:54:06.400Z,6.75
2022-08-16T09:56:39.500Z,6.55
2022-08-16T09:59:22.547Z,6.68
2022-08-16T10:01:51.612Z,6.30
2022-08-16T10:04:29.893Z,5.40
2022-08-16T10:07:14.805Z,4.95
2022-08-16T10:09:55.168Z,6.30
2022-08-16T10:12:45.498Z,5.82
2022-08-16T10:15:21.091Z,5.15
2022-08-16T10:18:01.052Z,6.10
2022-08-16T10:20:35.328Z,5.57
2022-08-16T10:23:07.383Z,5.30
2022-08-16T10:27:00.650Z,5.95
2022-08-16T10:28:32.525Z,6.50
2022-08-16T10:31:08.347Z,5.13
2022-08-16T10:33:40.587Z,5.88
2022-08-16T10:36:09.070Z,6.10
2022-08-16T10:38:38.568Z,5.60
2022-08-16T10:41:07.330Z,6.40
2022-08-16T10:43:36.388Z,5.78
2022-08-16T10:46:40.041Z,5.38
2022-08-16T10:48:53.695Z,5.68
2022-08-16T10:51:20.785Z,5.25
2022-08-16T10:54:04.919Z,5.88
2022-08-16T10:56:55.595Z,5.40
2022-08-16T10:59:44.954Z,5.82
2022-08-16T11:02:58.966Z,5.05
2022-08-16T11:05:08.896Z,4.85
2022-08-16T11:07:43.443Z,5.18
2022-08-16T11:10:19.982Z,4.70
2022-08-16T11:12:47.871Z,4.72
2022-08-16T11:15:20.926Z,5.00
2022-08-16T11:19:02.863Z,5.72
2022-08-16T11:20:41.173Z,6.30
2022-08-16T11:23:11.390Z,5.90
2022-08-16T11:31:14.028Z,6.18
2022-08-16T11:33:56.567Z,5.75
2022-08-16T11:36:27.388Z,5.93
2022-08-16T11:38:58.500Z,6.68
2022-08-16T11:41:29.393Z,5.90
2022-08-16T11:43:58.105Z,6.05
2022-08-16T11:46:44.339Z,5.82
2022-08-16T11:49:13.853Z,5.93
2022-08-16T11:51:44.634Z,6.38
2022-08-16T11:54:20.360Z,6.38
2022-08-16T11:56:57.182Z,6.60
2022-08-16T11:59:28.640Z,6.20
2022-08-16T12:02:31.469Z,5.65
2022-08-16T12:04:51.633Z,5.93
2022-08-16T12:07:19.903Z,6.05
2022-08-16T12:09:53.191Z,6.28
2022-08-16T12:12:23.721Z,5.95
2022-08-16T12:15:00.368Z,5.95
2022-08-16T12:17:32.499Z,6.07
2022-08-16T12:20:02.079Z,5.68
2022-08-16T12:22:34.052Z,5.45
2022-08-16T12:25:06.577Z,5.30
2022-08-16T12:27:35.169Z,5.68
2022-08-16T12:30:25.939Z,5.47
2022-08-16T12:32:57.837Z,5.82
2022-08-16T12:35:27.447Z,6.43
2022-08-16T12:37:58.572Z,5.90
2022-08-16T12:40:32.040Z,5.55
2022-08-16T12:43:01.883Z,5.63
2022-08-16T12:45:37.538Z,6.43
2022-08-16T12:48:34.071Z,5.60
2022-08-16T12:51:10.910Z,5.72
2022-08-16T12:53:47.535Z,6.28
2022-08-16T12:56:14.652Z,6.00
2022-08-16T12:58:49.202Z,5.70
2022-08-16T13:01:22.482Z,5.70
2022-08-16T13:03:59.232Z,5.47
2022-08-16T13:06:37.216Z,6.35
2022-08-16T13:09:20.190Z,5.97
2022-08-16T13:12:05.585Z,5.72
2022-08-16T13:14:41.523Z,5.80
2022-08-16T13:17:19.201Z,5.60
2022-08-16T13:22:43.663Z,5.45
2022-08-16T13:25:19.398Z,5.82
2022-08-16T13:28:02.033Z,6.13
2022-08-16T13:30:37.862Z,5.22
2022-08-16T13:33:14.808Z,5.75
2022-08-16T13:35:55.936Z,5.93
2022-08-16T13:38:30.202Z,4.88
2022-08-16T13:41:04.429Z,5.50
2022-08-16T13:43:38.053Z,5.65
2022-08-16T13:46:06.743Z,5.78
2022-08-16T13:48:42.933Z,5.70
2022-08-16T13:51:16.998Z,5.85
2022-08-16T13:53:49.573Z,5.90
2022-08-16T13:56:25.233Z,5.53
2022-08-16T13:58:54.890Z,6.07
2022-08-16T14:01:23.009Z,4.88
2022-08-16T14:03:54.589Z,5.35
2022-08-16T14:06:23.065Z,5.20
2022-08-16T14:09:06.286Z,4.68
2022-08-16T14:11:34.620Z,4.72
2022-08-16T14:14:05.753Z,4.97
2022-08-16T14:16:35.107Z,4.65
2022-08-16T14:19:03.586Z,4.50
2022-08-16T14:21:35.548Z,4.63
2022-08-16T14:24:12.853Z,4.10
2022-08-16T14:26:50.639Z,4.90
2022-08-16T14:29:20.273Z,4.18
2022-08-16T14:31:49.553Z,4.15
2022-08-16T14:34:21.150Z,4.47
2022-08-16T14:36:52.041Z,4.25
2022-08-16T14:39:22.380Z,4.93
2022-08-16T14:41:53.690Z,4.82
2022-08-16T14:44:26.198Z,4.20
2022-08-16T14:46:54.907Z,4.25
2022-08-16T14:49:23.131Z,4.82
2022-08-16T14:51:51.387Z,4.45
2022-08-16T14:54:19.797Z,4.63
2022-08-16T14:56:55.279Z,4.70
2022-08-16T14:59:23.777Z,4.78
2022-08-16T15:01:59.004Z,4.68
2022-08-16T15:04:39.976Z,4.93
2022-08-16T15:07:10.916Z,4.22
2022-08-16T15:09:44.382Z,5.18
2022-08-16T15:12:31.117Z,4.40
2022-08-16T15:15:04.610Z,4.20
2022-08-16T15:17:41.671Z,4.55
2022-08-16T15:20:11.565Z,5.68
2022-08-16T15:22:43.231Z,4.55
2022-08-16T15:25:14.220Z,4.68
2022-08-16T15:27:46.043Z,4.85
2022-08-16T15:30:56.979Z,4.07
2022-08-16T15:33:19.647Z,4.85
2022-08-16T15:35:50.312Z,4.80
2022-08-16T15:38:57.829Z,4.25
2022-08-16T15:41:05.802Z,4.40
2022-08-16T15:43:34.105Z,4.30
2022-08-16T15:46:55.749Z,4.78
2022-08-16T15:49:15.518Z,5.35
2022-08-16T15:51:45.478Z,4.32
2022-08-16T15:54:21.129Z,4.88
2022-08-16T15:57:05.944Z,4.78
2022-08-16T15:59:48.684Z,4.97
2022-08-16T16:02:27.375Z,4.10
2022-08-16T16:04:57.144Z,4.60
2022-08-16T16:07:29.968Z,3.70
2022-08-16T16:09:59.730Z,4.60
2022-08-16T16:15:18.480Z,4.75
2022-08-16T16:17:51.216Z,4.80
2022-08-16T16:20:22.088Z,4.50
2022-08-16T16:22:52.119Z,4.18
2022-08-16T16:25:20.240Z,4.38
2022-08-16T16:27:55.392Z,3.97
2022-08-16T16:30:33.378Z,4.03
2022-08-16T16:33:15.604Z,4.25
2022-08-16T16:35:55.467Z,4.10
2022-08-16T16:38:30.447Z,4.53
2022-08-16T16:40:59.789Z,5.00
2022-08-16T16:43:31.380Z,5.00
2022-08-16T16:46:00.063Z,4.88
2022-08-16T16:48:29.816Z,4.80
2022-08-16T16:51:09.140Z,5.00
2022-08-16T16:53:43.403Z,4.85
2022-08-16T16:56:20.372Z,5.47
2022-08-16T16:58:57.676Z,4.22
2022-08-16T17:01:35.031Z,4.90
2022-08-16T17:04:27.339Z,6.63
2022-08-16T17:07:01.443Z,7.30
2022-08-16T17:09:30.191Z,4.70
2022-08-16T17:11:58.239Z,5.00
2022-08-16T17:14:32.070Z,4.75
2022-08-16T17:16:59.546Z,5.30
2022-08-16T17:19:31.663Z,6.18
2022-08-16T17:22:00.324Z,6.72
2022-08-16T17:24:31.224Z,6.53
2022-08-16T17:27:08.628Z,9.10
2022-08-16T17:29:42.617Z,7.70
2022-08-16T17:32:33.669Z,6.22
2022-08-16T17:35:17.846Z,5.55
2022-08-16T17:37:51.520Z,5.38
2022-08-16T17:40:47.077Z,5.75
2022-08-16T17:43:16.369Z,6.18
2022-08-16T17:45:43.633Z,6.43
2022-08-16T17:48:11.691Z,6.18
2022-08-16T17:50:39.766Z,6.55
2022-08-16T17:53:07.694Z,5.82
2022-08-16T17:55:37.210Z,5.80
2022-08-16T17:58:20.183Z,6.90
2022-08-16T18:00:53.704Z,6.50
2022-08-16T18:04:03.139Z,6.20
2022-08-16T18:06:13.572Z,7.07
2022-08-16T18:08:41.515Z,6.90
2022-08-16T18:11:10.498Z,6.50
2022-08-16T18:13:42.902Z,6.40
2022-08-16T18:16:11.275Z,6.50
2022-08-16T18:18:38.525Z,7.00
2022-08-16T18:21:24.160Z,5.88
2022-08-16T18:23:51.150Z,6.63
2022-08-16T18:26:18.292Z,6.55
2022-08-16T18:28:45.225Z,6.97
2022-08-16T18:31:12.343Z,6.70
2022-08-16T18:33:43.671Z,7.25
2022-08-16T18:36:21.107Z,7.75
2022-08-16T18:38:50.552Z,7.57
2022-08-16T18:41:18.661Z,8.05
2022-08-16T18:44:22.422Z,7.50
2022-08-16T18:46:33.260Z,7.60
2022-08-16T18:49:00.498Z,7.10
2022-08-16T18:51:28.841Z,7.35
2022-08-16T18:53:57.751Z,7.35
2022-08-16T18:56:25.092Z,9.93
2022-08-16T18:59:12.413Z,10.35
2022-08-16T19:01:39.901Z,9.68
2022-08-16T19:04:07.037Z,10.65
2022-08-16T19:06:54.494Z,10.18
2022-08-16T19:09:22.230Z,9.45
2022-08-16T19:11:49.511Z,8.85
2022-08-16T19:14:17.086Z,7.78
2022-08-16T19:16:44.399Z,9.35
2022-08-16T19:19:11.889Z,8.20
2022-08-16T19:21:39.762Z,7.97
2022-08-16T19:24:07.095Z,8.38
2022-08-16T19:26:45.792Z,9.07
2022-08-16T19:29:13.542Z,7.85
2022-08-16T19:31:40.946Z,8.45
2022-08-16T19:34:08.752Z,8.88
2022-08-16T19:36:39.798Z,8.93
2022-08-16T19:39:14.310Z,10.75
2022-08-16T19:41:46.166Z,10.48
2022-08-16T19:44:22.059Z,9.68
2022-08-16T19:46:50.629Z,9.02
2022-08-16T19:49:18.048Z,8.70
2022-08-16T19:51:48.590Z,8.98
2022-08-16T19:54:16.487Z,8.57
2022-08-16T19:56:43.579Z,8.38
2022-08-16T19:59:20.585Z,8.85
2022-08-16T20:01:52.231Z,8.50
2022-08-16T20:04:21.052Z,8.80
2022-08-16T20:06:48.271Z,8.07
2022-08-16T20:09:16.219Z,9.18
2022-08-16T20:11:45.301Z,9.13
2022-08-16T20:14:23.985Z,9.93
2022-08-16T20:16:59.611Z,10.60
2022-08-16T20:19:32.540Z,10.93
2022-08-16T20:22:08.998Z,10.73
2022-08-16T20:24:36.686Z,11.77
2022-08-16T20:27:08.803Z,11.57
2022-08-16T20:29:38.153Z,10.15
2022-08-16T20:32:07.146Z,15.35
2022-08-16T20:34:34.978Z,11.20
2022-08-16T20:37:02.423Z,10.82
2022-08-16T20:39:29.988Z,10.35
2022-08-16T20:41:57.419Z,10.20
2022-08-16T20:44:25.758Z,10.93
2022-08-16T20:46:53.617Z,10.75
2022-08-16T20:49:20.966Z,9.73
2022-08-16T20:51:50.532Z,10.38
2022-08-16T20:54:19.854Z,10.52
2022-08-16T20:56:52.984Z,10.38
2022-08-16T20:59:20.343Z,10.88
2022-08-16T21:01:50.112Z,9.43
2022-08-16T21:04:19.883Z,10.30
2022-08-16T21:06:54.163Z,11.20
2022-08-16T21:09:25.587Z,11.23
2022-08-16T21:11:54.890Z,10.60
2022-08-16T21:14:23.128Z,10.52
2022-08-16T21:16:50.537Z,9.25
2022-08-16T21:19:18.372Z,10.02
2022-08-16T21:21:45.917Z,10.07
2022-08-16T21:24:13.523Z,10.65
2022-08-16T21:26:40.964Z,9.93
2022-08-16T21:29:21.102Z,11.02
2022-08-16T21:31:52.224Z,11.32
2022-08-16T21:34:19.152Z,10.15
2022-08-16T21:36:46.201Z,9.85
2022-08-16T21:39:13.372Z,9.38
2022-08-16T21:41:40.530Z,9.77
2022-08-16T21:44:07.933Z,9.82
2022-08-16T21:46:35.363Z,10.13
2022-08-16T21:49:04.688Z,11.10
2022-08-16T21:51:31.739Z,10.52
2022-08-16T21:53:59.346Z,11.50
2022-08-16T21:56:26.513Z,11.45
2022-08-16T21:58:53.816Z,11.18
2022-08-16T22:01:26.401Z,11.90
2022-08-16T22:03:57.988Z,11.07
2022-08-16T22:06:41.689Z,11.38
2022-08-16T22:09:10.849Z,10.98
2022-08-16T22:11:38.776Z,10.60
2022-08-16T22:14:06.289Z,11.10
2022-08-16T22:16:36.572Z,10.65
2022-08-16T22:19:04.788Z,10.27
2022-08-16T22:21:32.968Z,9.90
2022-08-16T22:24:02.665Z,10.50
2022-08-16T22:26:32.925Z,10.88
2022-08-16T22:29:01.912Z,11.02
2022-08-16T22:31:29.377Z,10.40
2022-08-16T22:33:56.913Z,10.20
2022-08-16T22:36:28.232Z,10.23
2022-08-16T22:38:58.954Z,11.27
2022-08-16T22:41:31.078Z,10.05
2022-08-16T22:43:58.558Z,10.48
2022-08-16T22:46:25.547Z,10.75
2022-08-16T22:48:52.778Z,10.43
2022-08-16T22:51:21.514Z,11.32
2022-08-16T22:53:48.457Z,10.77
2022-08-16T22:56:15.962Z,10.57
2022-08-16T22:58:43.749Z,11.32
2022-08-16T23:01:12.730Z,11.25
2022-08-16T23:03:41.073Z,11.10
2022-08-16T23:06:10.318Z,10.18
2022-08-16T23:08:40.925Z,10.30
2022-08-16T23:11:21.161Z,10.75
2022-08-16T23:13:54.728Z,9.82
2022-08-16T23:16:33.518Z,10.02
2022-08-16T23:19:03.195Z,11.00
2022-08-16T23:21:30.916Z,11.38
2022-08-16T23:23:58.258Z,11.68
2022-08-16T23:26:46.652Z,10.90
2022-08-16T23:29:22.026Z,10.35
2022-08-16T23:32:10.869Z,10.90
2022-08-16T23:34:38.428Z,10.60
2022-08-16T23:37:06.575Z,11.10
2022-08-16T23:39:34.424Z,10.50
2022-08-16T23:42:01.966Z,10.95
2022-08-16T23:44:56.186Z,10.82
2022-08-16T23:47:15.815Z,10.45
2022-08-16T23:49:57.018Z,10.85
2022-08-16T23:52:42.152Z,9.93
2022-08-16T23:55:17.239Z,10.43
2022-08-16T23:57:45.621Z,10.30
